Aérodrome :







RETROUVEZ-NOUS SUR...

 
LOGIN :

S'inscrire | Disclaimer

   EN    FR    IT 

 









Légende :    VFR   VFR Marginal   IFR   IFR Intensif   IFR Très Intensif
Visi : 
Plafond : 
>= 8 km
>= 3000ft
5 à 8 km
1000 à 3000 ft
1500m à 5 km
500 à 1000 ft
800 à 1500m
200 à 500 ft
< 800m
< 200 ft
Symboles :   Orages  Brouillard  Fortes neiges  Fortes précipitations  Vent > 20 kt






- Altitude de l'aérodrome : 38 ft
- Code IATA : YMH


CYMH - Mary's Harbour

DERNIER METAR :
  • 141300Z AUTO 28019G33KT 9SM CLR M06/M13 A2992 RMK PRESRR SLP135

METARs EXPIRÉS :
  • 141200Z AUTO 28022G34KT 9SM CLR M07/M14 A2984 RMK SLP108
  • 141144Z AUTO 27025G33KT 9SM CLR M07/M14 A2985 RMK SLP109
  • 141100Z AUTO 27015G27KT 9SM CLR M07/M14 A2981 RMK SLP096

TAF TAF CYMH
Valide du 14 à 10h jusqu'au 14 à 22h UTC


140938Z 1410/1422 28020G35KT P6SM SKC
BECMG 1416/1418 26018G28KT
BECMG 1419/1421 26015KT RMK FCST BASED ON AUTO OBS. NXT FCST BY 141400Z



MET'MAP, la Météo Aéronautique d'un coup d'oeil ! - Copyright ORBIFLY Décembre 2007 - Disclaimer

ORBIFLY MET'MAP TEAM :

Programmation & Développement : Alexandra Zaïnal
Conception & Développement : Baudouin d'Aumeries
Co-Programmation & Développement : Marc-Olivier Méhu
Soutien technique & logistique : Manuel Goepfert

Contact : metmap@orbifly.com




SOURCES & CREDITS :

   NOAA